Time;durP1;ratioP1;P1;durP2;ratioP2;P2;SDS_P1;SDS_P2;PMS_P1;PMS_P2;Temp;Humidity;BMP_temperature;BMP_pressure;BME280_temperature;BME280_humidity;BME280_pressure;Samples;Min_cycle;Max_cycle;Signal;HPM_P1;HPM_P2
2021/08/07 00:01:40;;;;;;;;;;;16.70;75.60;;;;;;5033300;28;19925;-73
2021/08/07 00:04:06;;;;;;;;;;;16.60;75.90;;;;;;5033637;28;19932;-73
2021/08/07 00:06:33;;;;;;;;;;;16.50;76.50;;;;;;5033215;28;19925;-73
2021/08/07 00:09:00;;;;;;;;;;;16.50;76.90;;;;;;5033450;28;20339;-73
2021/08/07 00:11:27;;;;;;;;;;;16.40;77.40;;;;;;5014096;28;19926;-73
2021/08/07 00:13:53;;;;;;;;;;;16.30;77.90;;;;;;5033353;28;19973;-73
2021/08/07 00:16:20;;;;;;;;;;;16.30;78.30;;;;;;5033163;28;19955;-73
2021/08/07 00:18:47;;;;;;;;;;;16.30;78.40;;;;;;5032743;28;19932;-73
2021/08/07 00:21:15;;;;;;;;;;;16.40;79.40;;;;;;5033141;28;19925;-73
2021/08/07 00:23:43;;;;;;;;;;;16.30;78.70;;;;;;5032650;28;19931;-73
2021/08/07 00:26:11;;;;;;;;;;;16.30;78.90;;;;;;5032554;28;19929;-73
2021/08/07 00:28:38;;;;;;;;;;;16.30;79.20;;;;;;5032439;28;20402;-73
2021/08/07 00:31:06;;;;;;;;;;;16.30;79.50;;;;;;5032429;28;19925;-73
2021/08/07 00:33:35;;;;;;;;;;;16.30;79.50;;;;;;5032433;28;20377;-73
2021/08/07 00:36:06;;;;;;;;;;;16.40;79.50;;;;;;5032337;28;19929;-73
2021/08/07 00:38:34;;;;;;;;;;;16.40;79.50;;;;;;5031992;28;19948;-73
2021/08/07 00:41:01;;;;;;;;;;;16.40;79.40;;;;;;5032486;28;19932;-73
2021/08/07 00:43:27;;;;;;;;;;;16.50;79.30;;;;;;5031998;28;20393;-73
2021/08/07 00:45:55;;;;;;;;;;;16.40;79.50;;;;;;5031850;28;20340;-73
2021/08/07 00:48:24;;;;;;;;;;;16.40;79.90;;;;;;5032588;28;19932;-73
2021/08/07 00:50:51;;;;;;;;;;;16.40;80.20;;;;;;5031841;28;20341;-73
2021/08/07 00:53:19;;;;;;;;;;;16.40;80.50;;;;;;5032098;28;19925;-73
2021/08/07 00:55:47;;;;;;;;;;;16.40;81.10;;;;;;5032633;28;19968;-74
2021/08/07 00:58:15;;;;;;;;;;;16.40;81.20;;;;;;5032765;28;19975;-73
2021/08/07 01:00:43;;;;;;;;;;;16.40;81.70;;;;;;5033064;28;19932;-73
2021/08/07 01:03:20;;;;;;;;;;;16.40;82.00;;;;;;5032520;28;19932;-74
2021/08/07 01:06:06;;;;;;;;;;;16.30;82.00;;;;;;5032532;28;19925;-73
2021/08/07 01:08:40;;;;;;;;;;;16.40;82.10;;;;;;5032615;28;19967;-73
2021/08/07 01:11:18;;;;;;;;;;;16.40;82.30;;;;;;5032856;28;19948;-73
2021/08/07 01:13:53;;;;;;;;;;;16.40;82.40;;;;;;5032450;28;19929;-73
2021/08/07 01:16:27;;;;;;;;;;;16.50;82.30;;;;;;5032756;28;19925;-73
2021/08/07 01:18:57;;;;;;;;;;;16.50;82.50;;;;;;5036392;28;19929;-73
2021/08/07 01:21:33;;;;;;;;;;;16.50;82.50;;;;;;5036400;28;20327;-73
2021/08/07 01:24:04;;;;;;;;;;;16.50;82.60;;;;;;5036397;28;19926;-73
2021/08/07 01:26:45;;;;;;;;;;;16.50;82.60;;;;;;5036701;28;20405;-73
2021/08/07 01:29:15;;;;;;;;;;;16.50;82.40;;;;;;5036846;28;19925;-74
2021/08/07 01:31:51;;;;;;;;;;;16.50;82.50;;;;;;5036317;28;19929;-73
2021/08/07 01:34:21;;;;;;;;;;;16.50;82.70;;;;;;5019339;28;19991;-73
2021/08/07 01:36:55;;;;;;;;;;;16.60;82.80;;;;;;5036222;28;19952;-73
2021/08/07 01:39:25;;;;;;;;;;;16.50;83.10;;;;;;5036412;28;19929;-73
2021/08/07 01:41:54;;;;;;;;;;;16.50;83.40;;;;;;5002684;28;19925;-74
2021/08/07 01:44:33;;;;;;;;;;;16.50;83.50;;;;;;5036597;28;19931;-73
2021/08/07 01:47:17;;;;;;;;;;;16.50;83.60;;;;;;5036050;28;20442;-73
2021/08/07 01:50:01;;;;;;;;;;;16.50;83.40;;;;;;5036187;28;19925;-73
2021/08/07 01:52:47;;;;;;;;;;;16.50;83.40;;;;;;5035708;28;20019;-73
2021/08/07 01:55:24;;;;;;;;;;;16.50;83.50;;;;;;5036042;28;19929;-73
2021/08/07 01:58:03;;;;;;;;;;;16.60;83.50;;;;;;5019691;28;19925;-73
2021/08/07 02:00:55;;;;;;;;;;;16.50;83.50;;;;;;5021377;28;19932;-73
2021/08/07 02:03:32;;;;;;;;;;;16.50;83.60;;;;;;5035832;28;20411;-74
2021/08/07 02:06:21;;;;;;;;;;;16.50;83.90;;;;;;5034553;28;19925;-73
2021/08/07 02:09:05;;;;;;;;;;;16.50;83.90;;;;;;5034299;28;19925;-73
2021/08/07 02:11:42;;;;;;;;;;;16.50;84.20;;;;;;5035227;28;20381;-73
2021/08/07 02:14:18;;;;;;;;;;;16.50;84.50;;;;;;5035565;28;19926;-74
2021/08/07 02:17:01;;;;;;;;;;;16.50;85.00;;;;;;5028785;28;20000;-74
2021/08/07 02:19:56;;;;;;;;;;;16.50;85.50;;;;;;5053660;28;20050;-73
2021/08/07 02:22:28;;;;;;;;;;;16.50;85.60;;;;;;5054386;28;19925;-73
2021/08/07 02:24:55;;;;;;;;;;;16.50;85.80;;;;;;5054048;28;19924;-73
2021/08/07 02:27:26;;;;;;;;;;;16.60;85.60;;;;;;5053600;28;19925;-73
2021/08/07 02:29:55;;;;;;;;;;;16.70;85.20;;;;;;5054281;28;19940;-73
2021/08/07 02:32:27;;;;;;;;;;;16.80;84.80;;;;;;5054372;28;19925;-74
2021/08/07 02:34:57;;;;;;;;;;;16.80;84.60;;;;;;5054337;28;20370;-74
2021/08/07 02:37:37;;;;;;;;;;;16.80;85.00;;;;;;5053494;28;19925;-73
2021/08/07 02:40:14;;;;;;;;;;;16.70;85.40;;;;;;5035958;28;20304;-73
2021/08/07 02:43:04;;;;;;;;;;;16.70;85.50;;;;;;5053028;28;20008;-73
2021/08/07 02:45:38;;;;;;;;;;;16.60;86.90;;;;;;5054183;28;19983;-73
2021/08/07 02:48:09;;;;;;;;;;;16.60;86.20;;;;;;5053395;28;20052;-73
2021/08/07 02:50:39;;;;;;;;;;;16.60;86.70;;;;;;5053913;28;19925;-73
2021/08/07 02:53:20;;;;;;;;;;;16.50;86.90;;;;;;5053300;28;19920;-73
2021/08/07 02:55:52;;;;;;;;;;;16.50;87.20;;;;;;5053622;28;20416;-73
2021/08/07 02:58:23;;;;;;;;;;;16.60;87.00;;;;;;5053776;28;19951;-73
2021/08/07 03:00:51;;;;;;;;;;;16.60;87.00;;;;;;5053849;28;19928;-74
2021/08/07 03:03:18;;;;;;;;;;;16.60;86.90;;;;;;5053511;28;19968;-73
2021/08/07 03:06:19;;;;;;;;;;;16.60;86.80;;;;;;5040485;28;19978;-73
2021/08/07 03:09:06;;;;;;;;;;;16.50;87.00;;;;;;5052581;28;19939;-73
2021/08/07 03:11:53;;;;;;;;;;;16.60;87.30;;;;;;5053480;28;19975;-74
2021/08/07 03:14:42;;;;;;;;;;;16.50;87.60;;;;;;5052731;28;19929;-73
2021/08/07 03:17:13;;;;;;;;;;;16.50;88.10;;;;;;5036262;28;19983;-73
2021/08/07 03:19:47;;;;;;;;;;;16.50;88.40;;;;;;4989326;28;1838960;-73
2021/08/07 03:22:17;;;;;;;;;;;16.50;88.50;;;;;;5054193;28;19982;-73
2021/08/07 03:24:44;;;;;;;;;;;16.50;88.30;;;;;;5054035;28;19972;-73
2021/08/07 03:27:14;;;;;;;;;;;16.40;88.40;;;;;;5054234;28;19931;-73
2021/08/07 03:29:41;;;;;;;;;;;16.40;88.50;;;;;;5054335;28;19947;-73
2021/08/07 03:32:10;;;;;;;;;;;16.50;88.70;;;;;;5054143;28;19925;-73
2021/08/07 03:34:41;;;;;;;;;;;16.50;88.70;;;;;;5053962;28;19975;-74
2021/08/07 03:37:09;;;;;;;;;;;16.50;88.90;;;;;;5054198;28;19925;-74
2021/08/07 03:39:37;;;;;;;;;;;16.50;88.70;;;;;;5053013;28;20388;-73
2021/08/07 03:42:04;;;;;;;;;;;16.60;88.70;;;;;;5035972;28;19925;-74
2021/08/07 03:44:33;;;;;;;;;;;16.60;88.30;;;;;;5053919;28;19929;-73
2021/08/07 03:47:00;;;;;;;;;;;16.70;87.70;;;;;;5054049;28;19932;-73
2021/08/07 03:49:27;;;;;;;;;;;16.80;87.20;;;;;;5053691;28;20301;-73
2021/08/07 03:51:55;;;;;;;;;;;16.90;86.40;;;;;;5052129;28;19931;-74
2021/08/07 03:54:24;;;;;;;;;;;16.90;86.10;;;;;;5053361;28;20299;-74
2021/08/07 03:56:52;;;;;;;;;;;16.90;86.10;;;;;;5053733;28;19931;-74
2021/08/07 03:59:19;;;;;;;;;;;16.90;86.10;;;;;;5035824;28;19925;-74
2021/08/07 04:01:45;;;;;;;;;;;16.90;86.10;;;;;;5053528;28;19925;-73
2021/08/07 04:04:11;;;;;;;;;;;17.00;86.00;;;;;;5053318;28;19975;-74
2021/08/07 04:06:37;;;;;;;;;;;17.00;85.80;;;;;;5053240;28;19925;-73
2021/08/07 04:09:03;;;;;;;;;;;17.00;85.80;;;;;;5053689;28;19929;-73
2021/08/07 04:11:30;;;;;;;;;;;17.00;85.60;;;;;;5052993;28;19929;-74
2021/08/07 04:13:57;;;;;;;;;;;17.10;85.50;;;;;;5053302;28;19928;-73
2021/08/07 04:16:23;;;;;;;;;;;17.10;85.30;;;;;;5053579;28;19925;-73
2021/08/07 04:18:49;;;;;;;;;;;17.20;85.30;;;;;;5052859;28;19932;-73
2021/08/07 04:21:16;;;;;;;;;;;17.20;85.30;;;;;;5052762;28;19947;-73
2021/08/07 04:23:42;;;;;;;;;;;17.20;85.40;;;;;;5053181;28;19924;-74
2021/08/07 04:26:08;;;;;;;;;;;17.20;85.60;;;;;;5035154;28;19936;-74
2021/08/07 04:28:34;;;;;;;;;;;17.20;85.70;;;;;;5053105;28;19932;-73
2021/08/07 04:31:00;;;;;;;;;;;17.20;85.80;;;;;;5052801;28;19925;-74
2021/08/07 04:33:27;;;;;;;;;;;17.20;85.80;;;;;;5053042;28;19991;-74
2021/08/07 04:35:53;;;;;;;;;;;17.20;85.90;;;;;;5052884;28;19928;-73
2021/08/07 04:38:20;;;;;;;;;;;17.20;85.90;;;;;;5053161;28;20003;-74
2021/08/07 04:40:48;;;;;;;;;;;17.30;86.10;;;;;;5034614;28;19925;-73
2021/08/07 04:43:14;;;;;;;;;;;17.20;86.20;;;;;;5052956;28;19929;-74
2021/08/07 04:45:40;;;;;;;;;;;17.20;86.30;;;;;;5034848;28;19925;-73
2021/08/07 04:48:07;;;;;;;;;;;17.20;86.30;;;;;;5052761;28;20402;-74
2021/08/07 04:50:34;;;;;;;;;;;17.20;86.50;;;;;;5034514;28;19963;-73
2021/08/07 04:53:01;;;;;;;;;;;17.20;86.70;;;;;;5052538;28;19929;-74
2021/08/07 04:55:27;;;;;;;;;;;17.20;86.60;;;;;;5052530;28;19932;-74
2021/08/07 04:57:54;;;;;;;;;;;17.20;86.60;;;;;;5052796;28;20291;-74
2021/08/07 05:00:21;;;;;;;;;;;17.20;86.90;;;;;;5052785;28;19979;-73
2021/08/07 05:02:47;;;;;;;;;;;17.10;87.20;;;;;;5052804;28;19932;-73
2021/08/07 05:05:14;;;;;;;;;;;17.20;87.40;;;;;;5052672;28;20407;-73
2021/08/07 05:07:42;;;;;;;;;;;17.20;87.20;;;;;;5052782;28;19932;-73
2021/08/07 05:10:09;;;;;;;;;;;17.20;86.80;;;;;;5052444;28;19929;-73
2021/08/07 05:12:35;;;;;;;;;;;17.10;87.20;;;;;;5052288;28;20304;-73
2021/08/07 05:15:02;;;;;;;;;;;17.00;87.70;;;;;;5052601;28;20039;-73
2021/08/07 05:17:28;;;;;;;;;;;17.10;88.00;;;;;;5051964;28;19974;-73
2021/08/07 05:19:54;;;;;;;;;;;17.10;88.60;;;;;;5051890;28;19928;-74
2021/08/07 05:22:20;;;;;;;;;;;17.20;87.50;;;;;;5034433;28;20293;-73
2021/08/07 05:24:47;;;;;;;;;;;17.20;87.30;;;;;;5052475;28;19925;-74
2021/08/07 05:27:13;;;;;;;;;;;17.20;86.80;;;;;;5052184;28;20391;-74
2021/08/07 05:29:39;;;;;;;;;;;17.20;86.70;;;;;;5052160;28;19929;-73
2021/08/07 05:32:05;;;;;;;;;;;17.20;86.50;;;;;;5052066;28;19925;-73
2021/08/07 05:34:31;;;;;;;;;;;17.20;86.60;;;;;;5052181;28;20050;-74
2021/08/07 05:36:58;;;;;;;;;;;17.30;86.40;;;;;;5052450;28;19960;-74
2021/08/07 05:39:24;;;;;;;;;;;17.30;86.30;;;;;;5051999;28;20308;-74
2021/08/07 05:41:50;;;;;;;;;;;17.30;86.00;;;;;;5052282;28;20342;-74
2021/08/07 05:44:16;;;;;;;;;;;17.30;85.60;;;;;;5052388;28;19929;-73
2021/08/07 05:46:42;;;;;;;;;;;17.30;85.50;;;;;;5052419;28;19931;-73
2021/08/07 05:49:09;;;;;;;;;;;17.30;85.50;;;;;;5052135;28;20004;-74
2021/08/07 05:51:35;;;;;;;;;;;17.40;85.30;;;;;;5052328;28;20446;-73
2021/08/07 05:54:02;;;;;;;;;;;17.40;85.10;;;;;;5052209;28;20082;-73
2021/08/07 05:56:28;;;;;;;;;;;17.40;84.80;;;;;;5052066;28;19968;-73
2021/08/07 05:58:54;;;;;;;;;;;17.40;84.80;;;;;;5052345;28;19932;-74
2021/08/07 06:01:20;;;;;;;;;;;17.40;84.50;;;;;;5051677;28;20396;-73
2021/08/07 06:03:46;;;;;;;;;;;17.30;84.70;;;;;;5053669;28;19925;-73
2021/08/07 06:06:12;;;;;;;;;;;17.30;84.90;;;;;;5055604;28;19925;-73
2021/08/07 06:08:39;;;;;;;;;;;17.30;84.90;;;;;;5055844;28;19924;-74
2021/08/07 06:11:05;;;;;;;;;;;17.30;85.00;;;;;;5055682;28;19933;-73
2021/08/07 06:13:31;;;;;;;;;;;17.30;85.10;;;;;;5055656;28;19929;-73
2021/08/07 06:15:57;;;;;;;;;;;17.30;85.10;;;;;;5055477;28;19933;-73
2021/08/07 06:18:23;;;;;;;;;;;17.30;85.60;;;;;;5055170;28;19983;-74
2021/08/07 06:20:50;;;;;;;;;;;17.30;86.10;;;;;;5055357;28;19997;-73
2021/08/07 06:23:16;;;;;;;;;;;17.30;85.50;;;;;;5055627;28;19932;-73
2021/08/07 06:25:42;;;;;;;;;;;17.40;85.30;;;;;;5055415;28;20390;-73
2021/08/07 06:28:09;;;;;;;;;;;17.40;85.30;;;;;;5055560;28;19963;-74
2021/08/07 06:30:37;;;;;;;;;;;17.50;85.50;;;;;;5054875;28;19925;-74
2021/08/07 06:33:03;;;;;;;;;;;17.60;85.30;;;;;;5054729;28;19933;-73
2021/08/07 06:35:29;;;;;;;;;;;17.60;84.60;;;;;;5054894;28;19948;-74
2021/08/07 06:37:56;;;;;;;;;;;17.60;84.70;;;;;;5054348;28;20324;-73
2021/08/07 06:40:22;;;;;;;;;;;17.60;84.50;;;;;;5054596;28;19925;-74
2021/08/07 06:42:48;;;;;;;;;;;17.70;84.60;;;;;;5054797;28;20015;-73
2021/08/07 06:45:15;;;;;;;;;;;17.70;84.40;;;;;;5054776;28;19925;-74
2021/08/07 06:47:41;;;;;;;;;;;17.70;84.10;;;;;;5054334;28;19925;-74
2021/08/07 06:50:07;;;;;;;;;;;17.80;83.80;;;;;;5054514;28;20396;-74
2021/08/07 06:52:34;;;;;;;;;;;17.80;83.70;;;;;;5054486;28;20006;-74
2021/08/07 06:55:01;;;;;;;;;;;17.90;83.50;;;;;;5052156;28;19992;-74
2021/08/07 06:57:27;;;;;;;;;;;18.00;83.40;;;;;;5054293;28;19925;-73
2021/08/07 06:59:53;;;;;;;;;;;18.00;83.00;;;;;;5054238;28;19933;-74
2021/08/07 07:02:19;;;;;;;;;;;18.00;82.20;;;;;;5054063;28;20407;-74
2021/08/07 07:04:46;;;;;;;;;;;18.00;81.90;;;;;;5054202;28;19925;-74
2021/08/07 07:07:12;;;;;;;;;;;18.10;81.20;;;;;;5054702;28;19967;-74
2021/08/07 07:09:38;;;;;;;;;;;18.10;81.40;;;;;;5054368;28;19928;-73
2021/08/07 07:12:04;;;;;;;;;;;18.20;81.50;;;;;;5054391;28;19929;-74
2021/08/07 07:14:31;;;;;;;;;;;18.40;81.00;;;;;;5052563;28;20328;-74
2021/08/07 07:16:57;;;;;;;;;;;18.40;81.00;;;;;;5053861;28;20266;-77
2021/08/07 07:19:25;;;;;;;;;;;18.60;80.20;;;;;;5037603;28;19925;-77
2021/08/07 07:21:51;;;;;;;;;;;18.80;79.70;;;;;;5034291;28;19925;-76
2021/08/07 07:24:17;;;;;;;;;;;18.90;78.50;;;;;;5033403;28;20383;-76
2021/08/07 07:26:44;;;;;;;;;;;19.00;78.10;;;;;;5033764;28;19925;-75
2021/08/07 07:29:10;;;;;;;;;;;19.00;77.40;;;;;;5033413;28;19925;-75
2021/08/07 07:31:36;;;;;;;;;;;19.00;77.10;;;;;;5033391;28;19940;-76
2021/08/07 07:34:02;;;;;;;;;;;18.90;76.70;;;;;;5048247;28;20385;-76
2021/08/07 07:36:28;;;;;;;;;;;18.80;77.20;;;;;;5033744;28;19926;-76
2021/08/07 07:38:55;;;;;;;;;;;18.90;77.10;;;;;;5033708;28;19929;-76
2021/08/07 07:41:21;;;;;;;;;;;19.10;76.70;;;;;;5033486;28;20304;-76
2021/08/07 07:43:47;;;;;;;;;;;19.10;76.10;;;;;;5033221;28;19925;-76
2021/08/07 07:46:13;;;;;;;;;;;19.20;76.10;;;;;;5033496;28;19926;-75
2021/08/07 07:48:40;;;;;;;;;;;19.10;75.30;;;;;;5015070;28;19925;-75
2021/08/07 07:51:07;;;;;;;;;;;19.10;75.30;;;;;;5033166;28;19932;-76
2021/08/07 07:53:33;;;;;;;;;;;19.00;75.40;;;;;;5033202;28;19969;-76
2021/08/07 07:55:59;;;;;;;;;;;19.00;75.40;;;;;;5033464;28;19925;-76
2021/08/07 07:58:25;;;;;;;;;;;18.90;75.30;;;;;;5032849;28;19925;-76
2021/08/07 08:00:52;;;;;;;;;;;18.90;75.30;;;;;;5033057;28;20381;-76
2021/08/07 08:03:19;;;;;;;;;;;18.80;75.90;;;;;;5033500;28;19926;-76
2021/08/07 08:05:45;;;;;;;;;;;19.10;77.10;;;;;;5033470;28;20388;-76
2021/08/07 08:08:11;;;;;;;;;;;19.60;76.30;;;;;;5032397;28;20419;-76
2021/08/07 08:10:38;;;;;;;;;;;20.20;74.90;;;;;;5032439;28;20262;-77
2021/08/07 08:13:05;;;;;;;;;;;20.70;72.90;;;;;;5032179;28;19929;-77
2021/08/07 08:15:31;;;;;;;;;;;21.30;70.90;;;;;;5031721;28;20684;-77
2021/08/07 08:17:58;;;;;;;;;;;22.10;68.00;;;;;;5032284;28;19932;-77
2021/08/07 08:20:25;;;;;;;;;;;22.80;66.50;;;;;;5032211;28;19925;-77
2021/08/07 08:22:51;;;;;;;;;;;23.50;63.20;;;;;;5033001;28;19925;-77
2021/08/07 08:25:18;;;;;;;;;;;23.80;60.00;;;;;;5033292;28;20036;-77
2021/08/07 08:27:45;;;;;;;;;;;24.00;59.10;;;;;;5032224;28;19929;-77
2021/08/07 08:30:11;;;;;;;;;;;24.10;57.50;;;;;;5032354;28;19944;-77
2021/08/07 08:32:37;;;;;;;;;;;24.10;58.30;;;;;;5032003;28;19925;-77
2021/08/07 08:35:04;;;;;;;;;;;24.00;58.20;;;;;;5032341;28;20026;-77
2021/08/07 08:37:31;;;;;;;;;;;23.80;57.50;;;;;;5032990;28;19932;-77
2021/08/07 08:39:57;;;;;;;;;;;23.30;57.40;;;;;;5033132;28;19925;-76
2021/08/07 08:42:24;;;;;;;;;;;22.80;58.80;;;;;;5032504;28;19933;-76
2021/08/07 08:44:50;;;;;;;;;;;22.30;60.00;;;;;;5031701;28;20416;-77
2021/08/07 08:47:18;;;;;;;;;;;21.80;61.50;;;;;;5032201;28;19968;-77
2021/08/07 08:49:45;;;;;;;;;;;21.50;62.50;;;;;;5030418;28;20444;-77
2021/08/07 08:52:13;;;;;;;;;;;21.40;63.90;;;;;;5030805;28;19932;-74
2021/08/07 08:54:40;;;;;;;;;;;21.70;65.00;;;;;;5032769;28;19936;-75
2021/08/07 08:57:06;;;;;;;;;;;22.50;64.40;;;;;;5031741;28;19932;-76
2021/08/07 08:59:33;;;;;;;;;;;23.30;63.10;;;;;;5032481;28;19925;-75
2021/08/07 09:01:59;;;;;;;;;;;23.70;60.10;;;;;;5032138;28;19933;-74
2021/08/07 09:04:26;;;;;;;;;;;23.70;58.60;;;;;;5031957;28;19936;-75
2021/08/07 09:06:53;;;;;;;;;;;23.80;59.00;;;;;;5031881;28;20399;-75
2021/08/07 09:09:33;;;;;;;;;;;24.40;57.50;;;;;;5031948;28;20335;-78
2021/08/07 09:12:00;;;;;;;;;;;25.10;53.00;;;;;;5031429;28;19932;-74
2021/08/07 09:14:29;;;;;;;;;;;24.90;51.20;;;;;;5032098;28;19926;-79
2021/08/07 09:16:59;;;;;;;;;;;24.80;52.10;;;;;;5031207;28;20384;-79
2021/08/07 09:19:26;;;;;;;;;;;25.00;50.40;;;;;;5046638;28;20058;-78
2021/08/07 09:22:05;;;;;;;;;;;25.00;49.60;;;;;;5051457;28;20004;-79
2021/08/07 09:24:31;;;;;;;;;;;25.00;49.50;;;;;;5041835;28;19925;-78
2021/08/07 09:27:01;;;;;;;;;;;25.00;48.00;;;;;;5042204;28;20463;-77
2021/08/07 09:29:40;;;;;;;;;;;24.90;49.70;;;;;;5051605;28;19929;-80
2021/08/07 09:32:07;;;;;;;;;;;25.20;50.10;;;;;;5051550;28;19924;-82
2021/08/07 09:34:33;;;;;;;;;;;25.90;49.70;;;;;;5045897;28;20310;-79
2021/08/07 09:36:59;;;;;;;;;;;26.40;48.50;;;;;;5043331;28;19924;-81
2021/08/07 09:39:38;;;;;;;;;;;26.40;46.40;;;;;;5054625;28;19980;-77
2021/08/07 09:42:04;;;;;;;;;;;25.90;45.30;;;;;;5055237;28;19925;-81
2021/08/07 09:44:31;;;;;;;;;;;25.10;46.90;;;;;;5037900;28;19947;-80
2021/08/07 09:47:07;;;;;;;;;;;24.90;48.30;;;;;;5045092;28;20300;-77
2021/08/07 09:49:38;;;;;;;;;;;25.10;48.20;;;;;;5051031;28;19924;-79
2021/08/07 09:52:04;;;;;;;;;;;25.40;47.90;;;;;;5055106;28;19925;-80
2021/08/07 09:54:35;;;;;;;;;;;25.40;47.20;;;;;;5052976;28;19925;-74
2021/08/07 09:57:02;;;;;;;;;;;25.00;46.20;;;;;;5047083;28;20320;-80
2021/08/07 09:59:33;;;;;;;;;;;24.40;47.70;;;;;;5040788;28;20012;-76
2021/08/07 10:01:59;;;;;;;;;;;23.90;49.60;;;;;;5055223;28;19994;-75
2021/08/07 10:04:36;;;;;;;;;;;24.40;51.30;;;;;;5055263;28;19929;-80
2021/08/07 10:07:07;;;;;;;;;;;25.50;49.80;;;;;;5054789;28;19925;-79
2021/08/07 10:09:34;;;;;;;;;;;26.50;46.70;;;;;;5054992;28;19924;-82
2021/08/07 10:12:03;;;;;;;;;;;26.70;43.40;;;;;;5054751;28;19932;-76
2021/08/07 10:14:29;;;;;;;;;;;26.60;42.80;;;;;;5054809;28;19924;-79
2021/08/07 10:16:56;;;;;;;;;;;26.10;43.70;;;;;;5054145;28;19925;-79
2021/08/07 10:19:22;;;;;;;;;;;25.50;45.10;;;;;;5039802;28;19932;-79
2021/08/07 10:21:51;;;;;;;;;;;25.30;46.60;;;;;;5034636;28;19925;-79
2021/08/07 10:24:18;;;;;;;;;;;25.00;47.10;;;;;;5016274;28;19925;-78
2021/08/07 10:26:49;;;;;;;;;;;24.70;48.50;;;;;;5032994;28;19939;-77
2021/08/07 10:29:17;;;;;;;;;;;24.40;48.30;;;;;;5033784;28;20012;-78
2021/08/07 10:31:44;;;;;;;;;;;24.20;49.40;;;;;;5034202;28;19925;-79
2021/08/07 10:34:10;;;;;;;;;;;24.00;50.30;;;;;;5048831;28;19955;-76
2021/08/07 10:36:37;;;;;;;;;;;23.80;51.10;;;;;;5033585;28;19925;-77
2021/08/07 10:39:05;;;;;;;;;;;23.80;51.00;;;;;;5033512;28;19932;-77
2021/08/07 10:41:31;;;;;;;;;;;23.70;51.10;;;;;;5033454;28;20027;-77
2021/08/07 10:43:59;;;;;;;;;;;23.60;50.60;;;;;;5033153;28;20380;-77
2021/08/07 10:46:26;;;;;;;;;;;23.50;48.90;;;;;;5034386;28;19979;-77
2021/08/07 10:48:52;;;;;;;;;;;23.40;48.40;;;;;;5033856;28;19933;-78
2021/08/07 10:51:19;;;;;;;;;;;23.30;48.50;;;;;;5034291;28;19925;-78
2021/08/07 10:53:46;;;;;;;;;;;23.10;49.70;;;;;;5034255;28;19971;-79
2021/08/07 10:56:28;;;;;;;;;;;23.00;50.80;;;;;;5033871;28;19925;-79
2021/08/07 10:58:57;;;;;;;;;;;23.00;51.80;;;;;;5034220;28;19925;-80
2021/08/07 11:01:26;;;;;;;;;;;23.00;52.30;;;;;;5029091;28;20285;-80
2021/08/07 11:04:02;;;;;;;;;;;23.10;53.00;;;;;;5033195;28;20385;-80
2021/08/07 11:06:43;;;;;;;;;;;23.10;52.10;;;;;;5034885;28;19925;-80
2021/08/07 11:09:30;;;;;;;;;;;23.10;51.90;;;;;;5034222;28;19925;-80
2021/08/07 11:12:05;;;;;;;;;;;22.90;50.70;;;;;;5032871;28;19973;-79
2021/08/07 11:14:34;;;;;;;;;;;22.80;51.10;;;;;;5032840;28;20551;-79
2021/08/07 11:17:06;;;;;;;;;;;22.60;51.40;;;;;;5033022;28;20332;-79
2021/08/07 11:19:44;;;;;;;;;;;22.40;52.20;;;;;;5049004;28;19932;-78
2021/08/07 11:22:10;;;;;;;;;;;22.30;52.40;;;;;;5053150;28;19925;-79
2021/08/07 11:24:48;;;;;;;;;;;22.20;52.60;;;;;;5054024;28;20407;-80
2021/08/07 11:27:15;;;;;;;;;;;22.00;53.00;;;;;;5053604;28;20373;-80
2021/08/07 11:30:00;;;;;;;;;;;21.90;53.50;;;;;;5053618;28;20384;-80
2021/08/07 11:32:26;;;;;;;;;;;21.90;54.00;;;;;;5050104;28;20036;-80
2021/08/07 11:34:52;;;;;;;;;;;22.00;54.90;;;;;;5052507;28;20015;-78
2021/08/07 11:37:20;;;;;;;;;;;22.00;54.10;;;;;;5054068;28;19925;-80
2021/08/07 11:40:05;;;;;;;;;;;22.00;54.10;;;;;;5054154;28;19925;-79
2021/08/07 11:42:36;;;;;;;;;;;22.00;53.30;;;;;;5049379;28;19928;-81
2021/08/07 11:45:02;;;;;;;;;;;21.90;52.40;;;;;;5054149;28;19936;-80
2021/08/07 11:47:29;;;;;;;;;;;21.90;51.60;;;;;;5053983;28;19929;-81
2021/08/07 11:49:56;;;;;;;;;;;22.00;52.20;;;;;;5045948;28;19932;-81
2021/08/07 11:52:27;;;;;;;;;;;21.90;52.60;;;;;;5053773;28;19968;-81
2021/08/07 11:54:54;;;;;;;;;;;22.00;53.00;;;;;;5052880;28;19932;-79
2021/08/07 11:57:26;;;;;;;;;;;22.00;53.20;;;;;;5053440;28;19931;-80
2021/08/07 11:59:52;;;;;;;;;;;22.00;52.70;;;;;;5051746;28;20339;-79
2021/08/07 12:02:18;;;;;;;;;;;22.00;52.10;;;;;;5052923;28;19924;-80
2021/08/07 12:05:04;;;;;;;;;;;21.90;51.60;;;;;;5053318;28;20285;-80
2021/08/07 12:07:30;;;;;;;;;;;21.80;52.30;;;;;;5052825;28;19931;-81
2021/08/07 12:10:04;;;;;;;;;;;21.80;52.90;;;;;;5051591;28;19929;-80
2021/08/07 12:12:31;;;;;;;;;;;21.70;52.90;;;;;;5052009;28;20368;-80
2021/08/07 12:15:05;;;;;;;;;;;21.60;53.50;;;;;;5053725;28;19970;-79
2021/08/07 12:17:32;;;;;;;;;;;21.50;53.50;;;;;;5051943;28;19925;-80
2021/08/07 12:19:59;;;;;;;;;;;21.40;53.30;;;;;;5037050;28;20285;-81
2021/08/07 12:22:26;;;;;;;;;;;21.30;53.50;;;;;;5033028;28;20086;-79
2021/08/07 12:25:04;;;;;;;;;;;21.20;53.40;;;;;;5033650;28;19929;-76
2021/08/07 12:27:31;;;;;;;;;;;21.20;54.00;;;;;;5031990;28;20008;-76
2021/08/07 12:30:04;;;;;;;;;;;21.30;54.90;;;;;;5032947;28;19926;-77
2021/08/07 12:32:30;;;;;;;;;;;21.40;55.40;;;;;;5032275;28;20399;-76
2021/08/07 12:34:56;;;;;;;;;;;21.60;54.80;;;;;;5032197;28;19951;-76
2021/08/07 12:37:22;;;;;;;;;;;21.60;55.10;;;;;;5031454;28;20305;-76
2021/08/07 12:39:50;;;;;;;;;;;21.70;53.70;;;;;;5032117;28;19925;-75
2021/08/07 12:42:19;;;;;;;;;;;21.70;53.40;;;;;;5032449;28;19929;-75
2021/08/07 12:45:03;;;;;;;;;;;21.60;53.90;;;;;;5032106;28;19966;-75
2021/08/07 12:47:30;;;;;;;;;;;21.60;54.20;;;;;;5031952;28;20430;-75
2021/08/07 12:49:56;;;;;;;;;;;21.60;54.50;;;;;;5032028;28;19936;-76
2021/08/07 12:52:22;;;;;;;;;;;21.60;54.90;;;;;;5032325;28;19925;-75
2021/08/07 12:55:07;;;;;;;;;;;21.50;55.50;;;;;;5031738;28;20388;-76
2021/08/07 12:57:33;;;;;;;;;;;21.50;56.30;;;;;;5024594;28;20397;-76
2021/08/07 13:00:00;;;;;;;;;;;21.40;57.30;;;;;;5031793;28;20308;-74
2021/08/07 13:02:26;;;;;;;;;;;21.40;58.10;;;;;;5031635;28;19936;-75
2021/08/07 13:04:53;;;;;;;;;;;21.30;58.50;;;;;;5031809;28;20052;-73
2021/08/07 13:07:40;;;;;;;;;;;21.40;58.50;;;;;;5031991;28;19932;-74
2021/08/07 13:10:23;;;;;;;;;;;21.30;58.30;;;;;;5032108;28;20460;-75
2021/08/07 13:12:50;;;;;;;;;;;21.30;58.60;;;;;;5034808;28;20337;-76
2021/08/07 13:15:16;;;;;;;;;;;21.30;58.30;;;;;;5036245;28;19928;-74
2021/08/07 13:17:44;;;;;;;;;;;21.30;58.60;;;;;;5036470;28;19925;-75
2021/08/07 13:20:12;;;;;;;;;;;21.30;59.10;;;;;;5055648;28;19974;-74
2021/08/07 13:22:42;;;;;;;;;;;21.40;59.30;;;;;;5055342;28;19967;-74
2021/08/07 13:25:15;;;;;;;;;;;21.40;59.40;;;;;;5055874;28;19925;-75
2021/08/07 13:27:44;;;;;;;;;;;21.40;58.90;;;;;;5037948;28;19924;-75
2021/08/07 13:30:14;;;;;;;;;;;21.50;58.80;;;;;;5055645;28;19963;-75
2021/08/07 13:32:40;;;;;;;;;;;21.40;58.70;;;;;;5054344;28;19935;-75
2021/08/07 13:35:15;;;;;;;;;;;21.40;58.70;;;;;;5055039;28;20400;-74
2021/08/07 13:37:43;;;;;;;;;;;21.50;58.70;;;;;;5054781;28;19931;-75
2021/08/07 13:40:11;;;;;;;;;;;21.50;59.10;;;;;;5055220;28;19925;-73
2021/08/07 13:42:38;;;;;;;;;;;21.50;58.10;;;;;;5055181;28;19924;-74
2021/08/07 13:45:05;;;;;;;;;;;21.50;57.10;;;;;;5055474;28;19925;-74
2021/08/07 13:47:31;;;;;;;;;;;21.50;57.10;;;;;;5053769;28;19959;-75
2021/08/07 13:49:57;;;;;;;;;;;21.50;58.00;;;;;;5055317;28;19929;-74
2021/08/07 13:52:24;;;;;;;;;;;21.50;57.50;;;;;;5055242;28;19936;-75
2021/08/07 13:54:50;;;;;;;;;;;21.50;57.40;;;;;;5054971;28;19932;-78
2021/08/07 13:57:16;;;;;;;;;;;21.50;56.60;;;;;;5055152;28;19974;-75
2021/08/07 13:59:42;;;;;;;;;;;21.50;56.70;;;;;;5055305;28;19925;-75
2021/08/07 14:02:09;;;;;;;;;;;21.50;57.10;;;;;;5054816;28;19925;-75
2021/08/07 14:04:36;;;;;;;;;;;21.50;56.50;;;;;;5054143;28;19925;-75
2021/08/07 14:07:03;;;;;;;;;;;21.50;56.30;;;;;;5055111;28;19968;-74
2021/08/07 14:09:29;;;;;;;;;;;21.50;56.70;;;;;;5054473;28;19932;-75
2021/08/07 14:11:55;;;;;;;;;;;21.50;56.90;;;;;;5054146;28;19947;-74
2021/08/07 14:14:22;;;;;;;;;;;21.40;57.30;;;;;;5054843;28;19924;-75
2021/08/07 14:16:52;;;;;;;;;;;21.40;57.60;;;;;;5054555;28;19929;-73
2021/08/07 14:19:19;;;;;;;;;;;21.40;58.00;;;;;;5054745;28;20073;-74
2021/08/07 14:21:45;;;;;;;;;;;21.50;58.60;;;;;;5054731;28;19925;-74
2021/08/07 14:24:14;;;;;;;;;;;21.40;59.20;;;;;;5053891;28;19925;-75
2021/08/07 14:26:41;;;;;;;;;;;21.40;60.70;;;;;;5054617;28;19947;-74
2021/08/07 14:29:07;;;;;;;;;;;21.30;61.80;;;;;;5054690;28;19984;-74